createdAt,value
2023-03-05T00:01:59.338Z,83.3
2023-03-05T00:04:45.731Z,83.2
2023-03-05T00:07:31.905Z,83.3
2023-03-05T00:10:18.288Z,83.3
2023-03-05T00:13:04.672Z,83.5
2023-03-05T00:15:50.950Z,83.5
2023-03-05T00:18:37.471Z,83.4
2023-03-05T00:21:23.581Z,83.6
2023-03-05T00:24:09.992Z,83.6
2023-03-05T00:26:56.163Z,83.7
2023-03-05T00:29:42.534Z,83.6
2023-03-05T00:32:28.929Z,83.6
2023-03-05T00:35:15.312Z,83.9
2023-03-05T00:38:01.557Z,83.8
2023-03-05T00:40:47.809Z,84
2023-03-05T00:43:34.000Z,84
2023-03-05T00:46:20.583Z,83.9
2023-03-05T00:49:06.806Z,84
2023-03-05T00:51:52.902Z,84.1
2023-03-05T00:54:39.146Z,84.3
2023-03-05T00:57:25.407Z,84.2
2023-03-05T01:00:11.585Z,84.4
2023-03-05T01:02:57.936Z,84.3
2023-03-05T01:05:44.228Z,84.5
2023-03-05T01:08:30.617Z,84.5
2023-03-05T01:11:16.918Z,84.6
2023-03-05T01:14:03.267Z,84.9
2023-03-05T01:16:49.563Z,84.9
2023-03-05T01:19:38.368Z,85
2023-03-05T01:22:24.635Z,85.2
2023-03-05T01:25:10.860Z,85.1
2023-03-05T01:27:56.950Z,85.3
2023-03-05T01:30:43.109Z,85.6
2023-03-05T01:33:29.520Z,85.6
2023-03-05T01:36:15.930Z,85.5
2023-03-05T01:39:02.182Z,85.5
2023-03-05T01:41:48.446Z,85.4
2023-03-05T01:44:34.907Z,85.7
2023-03-05T01:47:22.265Z,85.5
2023-03-05T01:50:08.590Z,85.9
2023-03-05T01:52:54.813Z,85.7
2023-03-05T01:55:40.953Z,85.8
2023-03-05T01:58:27.360Z,85.8
2023-03-05T02:01:13.740Z,86
2023-03-05T02:04:00.329Z,86.2
2023-03-05T02:06:46.787Z,86.2
2023-03-05T02:09:33.059Z,86.1
2023-03-05T02:12:19.407Z,86
2023-03-05T02:15:05.658Z,86
2023-03-05T02:17:51.809Z,86.5
2023-03-05T02:20:38.166Z,86.5
2023-03-05T02:23:24.451Z,86.4
2023-03-05T02:26:10.791Z,86.3
2023-03-05T02:28:57.004Z,86.2
2023-03-05T02:31:43.578Z,86.2
2023-03-05T02:34:29.878Z,86.3
2023-03-05T02:37:16.200Z,86.5
2023-03-05T02:40:02.470Z,86.7
2023-03-05T02:42:48.744Z,86.6
2023-03-05T02:45:35.058Z,86.6
2023-03-05T02:48:21.444Z,87
2023-03-05T02:51:07.540Z,86.8
2023-03-05T02:53:53.885Z,87.1
2023-03-05T02:56:40.064Z,87.1
2023-03-05T02:59:26.458Z,87
2023-03-05T03:02:12.833Z,87
2023-03-05T03:04:59.188Z,86.9
2023-03-05T03:07:45.326Z,86.9
2023-03-05T03:10:31.483Z,87
2023-03-05T03:13:17.601Z,87
2023-03-05T03:16:03.785Z,87.1
2023-03-05T03:18:50.027Z,87.3
2023-03-05T03:21:36.262Z,87.3
2023-03-05T03:24:22.563Z,87.4
2023-03-05T03:27:08.970Z,87.5
2023-03-05T03:29:55.234Z,87.4
2023-03-05T03:32:41.507Z,87.7
2023-03-05T03:35:27.637Z,88
2023-03-05T03:38:14.001Z,87.8
2023-03-05T03:41:00.356Z,87.9
2023-03-05T03:43:46.668Z,87.9
2023-03-05T03:46:32.975Z,88
2023-03-05T03:49:19.439Z,88.1
2023-03-05T03:52:05.594Z,88.1
2023-03-05T03:54:51.848Z,88.2
2023-03-05T03:57:37.957Z,88.2
2023-03-05T04:00:24.257Z,88.2
2023-03-05T04:03:13.324Z,88.3
2023-03-05T04:05:59.799Z,88.3
2023-03-05T04:08:45.894Z,88.2
2023-03-05T04:11:32.074Z,88.3
2023-03-05T04:14:18.196Z,88.4
2023-03-05T04:17:04.548Z,88.5
2023-03-05T04:19:50.753Z,88.6
2023-03-05T04:22:36.976Z,88.9
2023-03-05T04:25:23.172Z,88.7
2023-03-05T04:28:09.442Z,88.9
2023-03-05T04:30:55.853Z,88.9
2023-03-05T04:33:42.370Z,89.2
2023-03-05T04:36:28.652Z,89.3
2023-03-05T04:39:14.892Z,89.2
2023-03-05T04:42:01.210Z,89.5
2023-03-05T04:44:47.480Z,89.7
2023-03-05T04:47:33.660Z,89.6
2023-03-05T04:50:19.911Z,89.7
2023-03-05T04:53:06.146Z,89.8
2023-03-05T04:55:52.549Z,90
2023-03-05T04:58:38.896Z,89.9
2023-03-05T05:01:25.210Z,90.2
2023-03-05T05:04:11.575Z,90.1
2023-03-05T05:06:57.899Z,90.2
2023-03-05T05:09:44.216Z,90.3
2023-03-05T05:12:30.508Z,90.2
2023-03-05T05:15:16.635Z,90.3
2023-03-05T05:18:03.035Z,90.5
2023-03-05T05:20:49.181Z,90.4
2023-03-05T05:23:35.529Z,90.4
2023-03-05T05:26:21.877Z,90.6
2023-03-05T05:29:08.233Z,90.9
2023-03-05T05:31:54.649Z,90.7
2023-03-05T05:34:40.950Z,90.7
2023-03-05T05:37:27.286Z,90.8
2023-03-05T05:40:13.537Z,90.9
2023-03-05T05:42:59.754Z,90.9
2023-03-05T05:45:46.407Z,90.8
2023-03-05T05:48:33.044Z,91.1
2023-03-05T05:51:19.467Z,91
2023-03-05T05:54:05.693Z,90.9
2023-03-05T05:56:52.015Z,91
2023-03-05T05:59:38.267Z,91
2023-03-05T06:02:24.588Z,91.1
2023-03-05T06:05:11.000Z,91.1
2023-03-05T06:07:57.231Z,91.1
2023-03-05T06:10:43.531Z,91.2
2023-03-05T06:13:29.877Z,91.2
2023-03-05T06:16:16.372Z,91.3
2023-03-05T06:19:04.810Z,91.1
2023-03-05T06:21:51.285Z,91.2
2023-03-05T06:24:37.632Z,91
2023-03-05T06:27:23.976Z,91
2023-03-05T06:30:10.408Z,91.2
2023-03-05T06:32:56.962Z,91.4
2023-03-05T06:35:43.892Z,91.4
2023-03-05T06:38:30.312Z,91.4
2023-03-05T06:41:19.209Z,91.6
2023-03-05T06:44:05.611Z,91.7
2023-03-05T06:46:51.940Z,91.6
2023-03-05T06:49:38.385Z,91.8
2023-03-05T06:52:24.866Z,92.1
2023-03-05T06:55:11.223Z,92
2023-03-05T06:57:57.669Z,91.9
2023-03-05T07:00:44.067Z,91.7
2023-03-05T07:03:33.133Z,91.6
2023-03-05T07:06:19.579Z,91.7
2023-03-05T07:09:05.980Z,91.9
2023-03-05T07:11:52.235Z,91.7
2023-03-05T07:14:38.641Z,92
2023-03-05T07:17:24.872Z,91.9
2023-03-05T07:20:11.282Z,92.1
2023-03-05T07:22:57.566Z,92
2023-03-05T07:25:43.977Z,91.9
2023-03-05T07:28:30.089Z,91.9
2023-03-05T07:31:16.509Z,92.1
2023-03-05T07:34:03.137Z,92.1
2023-03-05T07:36:49.475Z,92
2023-03-05T07:39:35.870Z,91.9
2023-03-05T07:42:22.406Z,92
2023-03-05T07:45:08.737Z,92
2023-03-05T07:47:55.029Z,92.1
2023-03-05T07:50:41.226Z,92.1
2023-03-05T07:53:27.576Z,92.3
2023-03-05T07:56:13.873Z,92.3
2023-03-05T07:59:00.388Z,92.3
2023-03-05T08:01:46.622Z,92.4
2023-03-05T08:04:33.201Z,92.5
2023-03-05T08:07:19.552Z,92.6
2023-03-05T08:10:05.826Z,92.5
2023-03-05T08:12:52.204Z,92.6
2023-03-05T08:15:38.755Z,92.5
2023-03-05T08:18:25.141Z,92.8
2023-03-05T08:21:11.503Z,92.8
2023-03-05T08:23:57.839Z,92.8
2023-03-05T08:26:44.238Z,92.7
2023-03-05T08:29:30.510Z,92.8
2023-03-05T08:32:17.065Z,92.8
2023-03-05T08:35:03.613Z,92.9
2023-03-05T08:37:50.088Z,92.9
2023-03-05T08:40:36.438Z,92.9
2023-03-05T08:43:23.015Z,93
2023-03-05T08:46:09.556Z,93.3
2023-03-05T08:48:56.152Z,93.5
2023-03-05T08:51:42.448Z,93.6
2023-03-05T09:29:44.825Z,50
2023-03-05T09:36:30.663Z,92.4
2023-03-05T09:39:14.299Z,92.4
2023-03-05T09:41:58.044Z,92.2
2023-03-05T09:44:41.781Z,92.5
2023-03-05T09:47:25.694Z,92.3
2023-03-05T09:50:09.408Z,91.9
2023-03-05T09:52:53.140Z,91.5
2023-03-05T09:55:36.830Z,91.8
2023-03-05T10:02:47.332Z,91.4
2023-03-05T10:10:12.769Z,88.7
2023-03-05T10:13:00.559Z,88.8
2023-03-05T10:15:48.536Z,88.7
2023-03-05T10:18:36.448Z,87.9
2023-03-05T10:21:24.171Z,88.1
2023-03-05T10:24:12.024Z,88
2023-03-05T10:27:00.041Z,88.2
2023-03-05T10:29:47.972Z,88.6
2023-03-05T10:32:36.281Z,89
2023-03-05T10:35:24.430Z,89
2023-03-05T10:38:12.392Z,89.3
2023-03-05T10:41:00.114Z,89.3
2023-03-05T10:43:47.906Z,88.7
2023-03-05T10:46:35.686Z,88.9
2023-03-05T10:49:23.548Z,88.8
2023-03-05T10:52:11.389Z,88.5
2023-03-05T10:54:59.086Z,89
2023-03-05T10:57:46.773Z,88.1
2023-03-05T11:00:34.554Z,87.5
2023-03-05T11:03:22.438Z,86.8
2023-03-05T11:06:10.190Z,87.4
2023-03-05T11:08:58.279Z,87.3
2023-03-05T11:11:46.046Z,88
2023-03-05T11:14:33.924Z,87.5
2023-03-05T11:17:21.711Z,87.7
2023-03-05T11:20:09.540Z,88.7
2023-03-05T11:22:57.326Z,86.9
2023-03-05T11:25:45.229Z,85.1
2023-03-05T11:28:34.221Z,82.9
2023-03-05T11:31:22.427Z,82.3
2023-03-05T11:34:10.195Z,78.4
2023-03-05T11:36:58.066Z,73.6
2023-03-05T11:39:45.721Z,71.7
2023-03-05T11:42:33.634Z,71.7
2023-03-05T11:45:21.438Z,72
2023-03-05T11:48:09.213Z,72.5
2023-03-05T11:50:57.044Z,73.7
2023-03-05T11:53:44.824Z,74.2
2023-03-05T11:56:32.515Z,73.7
2023-03-05T11:59:20.425Z,74.7
2023-03-05T12:02:08.236Z,74.8
2023-03-05T12:04:56.149Z,75.3
2023-03-05T12:07:44.373Z,75.8
2023-03-05T12:10:32.671Z,76.6
2023-03-05T12:13:20.445Z,77.2
2023-03-05T12:16:08.419Z,78.1
2023-03-05T12:18:56.531Z,78.5
2023-03-05T12:21:44.825Z,77.9
2023-03-05T12:24:32.605Z,78.2
2023-03-05T12:27:20.446Z,78.2
2023-03-05T12:30:08.485Z,78.4
2023-03-05T12:32:56.701Z,78.3
2023-03-05T12:35:44.404Z,78.3
2023-03-05T12:38:52.735Z,78.1
2023-03-05T12:41:40.777Z,78
2023-03-05T12:44:28.492Z,78.1
2023-03-05T12:47:16.387Z,78
2023-03-05T12:50:04.336Z,78.2
2023-03-05T12:52:52.095Z,78.1
2023-03-05T12:55:39.877Z,78.1
2023-03-05T12:58:27.506Z,78
2023-03-05T13:01:15.531Z,77.9
2023-03-05T13:04:03.457Z,78.1
2023-03-05T13:06:51.463Z,78.6
2023-03-05T13:09:39.315Z,79
2023-03-05T13:12:27.570Z,78.9
2023-03-05T13:15:15.334Z,78.9
2023-03-05T13:18:03.423Z,79.3
2023-03-05T13:20:51.350Z,78.9
2023-03-05T13:23:39.307Z,78.5
2023-03-05T13:26:27.130Z,78.6
2023-03-05T13:29:14.955Z,78.7
2023-03-05T13:32:03.029Z,79.4
2023-03-05T13:34:50.904Z,79
2023-03-05T13:37:38.768Z,78.7
2023-03-05T13:40:26.586Z,79
2023-03-05T13:43:14.836Z,79.5
2023-03-05T13:46:02.994Z,79.7
2023-03-05T13:48:50.706Z,79.5
2023-03-05T13:51:38.701Z,79.3
2023-03-05T13:54:26.414Z,79.2
2023-03-05T13:57:18.311Z,79.5
2023-03-05T14:00:06.453Z,79.3
2023-03-05T14:02:59.708Z,78.6
2023-03-05T14:05:47.605Z,78.7
2023-03-05T14:08:35.381Z,78.9
2023-03-05T14:11:23.339Z,78.9
2023-03-05T14:14:11.127Z,79.8
2023-03-05T14:16:59.084Z,79.6
2023-03-05T14:19:47.335Z,79.1
2023-03-05T14:22:34.991Z,79.7
2023-03-05T14:25:22.765Z,80.1
2023-03-05T14:28:10.480Z,79.2
2023-03-05T14:30:58.699Z,79.1
2023-03-05T14:33:46.462Z,79.1
2023-03-05T14:36:34.240Z,78.7
2023-03-05T14:39:21.972Z,79.1
2023-03-05T14:42:09.888Z,79.7
2023-03-05T14:44:57.539Z,79.4
2023-03-05T14:47:45.605Z,79.2
2023-03-05T14:50:33.324Z,79
2023-03-05T14:53:21.226Z,78.8
2023-03-05T14:56:08.882Z,78.9
2023-03-05T14:58:56.613Z,78.6
2023-03-05T15:01:44.512Z,78.7
2023-03-05T15:04:32.564Z,79
2023-03-05T15:07:20.192Z,78.2
2023-03-05T15:10:08.020Z,77
2023-03-05T15:12:55.784Z,76.8
2023-03-05T15:15:43.780Z,76.8
2023-03-05T15:18:31.506Z,77.1
2023-03-05T15:21:19.356Z,77.5
2023-03-05T15:24:06.964Z,77.5
2023-03-05T15:26:54.797Z,77.6
2023-03-05T15:29:42.466Z,77.2
2023-03-05T15:32:30.627Z,77.2
2023-03-05T15:35:18.581Z,77.2
2023-03-05T15:38:06.568Z,77.3
2023-03-05T15:40:54.124Z,77.6
2023-03-05T15:43:41.914Z,77.3
2023-03-05T15:46:29.869Z,77.3
2023-03-05T15:49:17.714Z,77.3
2023-03-05T15:52:05.408Z,77.6
2023-03-05T15:54:53.271Z,77.7
2023-03-05T15:57:41.181Z,78.2
2023-03-05T16:00:31.660Z,78.3
2023-03-05T16:03:19.664Z,78.3
2023-03-05T16:06:07.468Z,78.2
2023-03-05T16:08:55.283Z,78.2
2023-03-05T16:11:43.248Z,78.4
2023-03-05T16:14:30.889Z,78.6
2023-03-05T16:17:18.840Z,78.9
2023-03-05T16:20:06.481Z,79.1
2023-03-05T16:22:54.151Z,79.5
2023-03-05T16:25:41.779Z,79.7
2023-03-05T16:28:29.605Z,79.9
2023-03-05T16:31:17.519Z,80.1
2023-03-05T16:34:05.343Z,80.2
2023-03-05T16:36:53.274Z,80.2
2023-03-05T16:39:41.212Z,80.5
2023-03-05T16:42:29.001Z,80.5
2023-03-05T16:45:17.056Z,80.5
2023-03-05T16:48:04.714Z,80.5
2023-03-05T16:50:52.599Z,80.5
2023-03-05T16:53:40.336Z,80.4
2023-03-05T16:56:27.996Z,80.4
2023-03-05T16:59:15.588Z,80.4
2023-03-05T17:02:03.489Z,80.5
2023-03-05T17:04:51.491Z,80.5
2023-03-05T17:07:39.270Z,80.7
2023-03-05T17:10:26.876Z,80.9
2023-03-05T17:13:14.525Z,81.1
2023-03-05T17:16:02.396Z,81.4
2023-03-05T17:18:50.228Z,81.6
2023-03-05T17:21:40.038Z,81.8
2023-03-05T17:24:28.981Z,82.1
2023-03-05T17:27:16.644Z,82.1
2023-03-05T17:30:04.451Z,82.2
2023-03-05T17:32:52.260Z,82.2
2023-03-05T17:35:40.309Z,82.3
2023-03-05T17:38:28.065Z,82.4
2023-03-05T17:41:15.882Z,82.5
2023-03-05T17:44:03.661Z,82.6
2023-03-05T17:46:51.283Z,82.7
2023-03-05T17:49:38.859Z,82.8
2023-03-05T17:52:26.715Z,82.9
2023-03-05T17:55:14.372Z,83
2023-03-05T17:58:02.206Z,83
2023-03-05T18:00:50.068Z,83.2
2023-03-05T18:03:37.855Z,83.3
2023-03-05T18:06:25.561Z,83.3
2023-03-05T18:09:13.473Z,83.5
2023-03-05T18:12:01.176Z,83.4
2023-03-05T18:14:48.859Z,83.3
2023-03-05T18:17:36.642Z,83.4
2023-03-05T18:20:24.426Z,83.4
2023-03-05T18:23:12.104Z,83.4
2023-03-05T18:26:00.017Z,83.4
2023-03-05T18:28:47.666Z,83.4
2023-03-05T18:31:35.603Z,83.4
2023-03-05T18:34:23.387Z,83.5
2023-03-05T18:37:11.170Z,83.5
2023-03-05T18:39:58.982Z,83.5
2023-03-05T18:42:46.830Z,83.6
2023-03-05T18:45:34.470Z,83.7
2023-03-05T18:48:22.171Z,83.8
2023-03-05T18:51:09.789Z,83.7
2023-03-05T18:53:57.620Z,83.7
2023-03-05T18:56:45.393Z,83.9
2023-03-05T18:59:33.212Z,83.9
2023-03-05T19:02:21.010Z,83.9
2023-03-05T19:05:08.868Z,84.1
2023-03-05T19:07:56.696Z,84
2023-03-05T19:10:44.426Z,84.1
2023-03-05T19:13:32.119Z,84.4
2023-03-05T19:16:20.110Z,84.8
2023-03-05T19:19:07.933Z,85
2023-03-05T19:21:55.805Z,85.1
2023-03-05T19:24:43.484Z,85.4
2023-03-05T19:27:31.171Z,85.4
2023-03-05T19:30:18.835Z,85.4
2023-03-05T19:33:06.861Z,85.7
2023-03-05T19:35:54.691Z,85.9
2023-03-05T19:38:42.559Z,85.9
2023-03-05T19:41:30.200Z,86
2023-03-05T19:44:18.014Z,86.2
2023-03-05T19:47:05.798Z,86.3
2023-03-05T19:49:53.679Z,86.6
2023-03-05T19:52:41.411Z,86.6
2023-03-05T19:55:29.245Z,86.7
2023-03-05T19:58:16.842Z,86.8
2023-03-05T20:01:04.460Z,86.8
2023-03-05T20:03:52.127Z,87.1
2023-03-05T20:06:40.460Z,87.2
2023-03-05T20:09:28.190Z,87.3
2023-03-05T20:12:15.833Z,87.2
2023-03-05T20:15:03.612Z,87.2
2023-03-05T20:17:51.213Z,87.4
2023-03-05T20:20:38.989Z,87.3
2023-03-05T20:23:26.852Z,87.9
2023-03-05T20:26:14.624Z,88
2023-03-05T20:29:02.392Z,88.1
2023-03-05T20:31:50.274Z,88.4
2023-03-05T20:34:38.063Z,88.6
2023-03-05T20:37:25.816Z,88.7
2023-03-05T20:40:13.524Z,88.7
2023-03-05T20:43:01.284Z,88.8
2023-03-05T20:45:48.992Z,89
2023-03-05T20:48:36.723Z,89.3
2023-03-05T20:51:24.417Z,89.5
2023-03-05T20:54:12.145Z,89.8
2023-03-05T20:56:59.942Z,89.8
2023-03-05T20:59:47.753Z,90
2023-03-05T21:02:35.559Z,90
2023-03-05T21:05:23.293Z,90.1
2023-03-05T21:08:10.957Z,90
2023-03-05T21:10:58.636Z,90.2
2023-03-05T21:13:46.440Z,90.1
2023-03-05T21:16:34.415Z,90.1
2023-03-05T21:19:22.629Z,90
2023-03-05T21:22:10.717Z,90.3
2023-03-05T21:24:58.577Z,90.4
2023-03-05T21:27:46.326Z,90.6
2023-03-05T21:30:34.162Z,90.6
2023-03-05T21:33:21.977Z,90.5
2023-03-05T21:36:09.856Z,90.5
2023-03-05T21:38:57.588Z,90.5
2023-03-05T21:41:45.253Z,90.4
2023-03-05T21:44:32.985Z,90.5
2023-03-05T21:47:20.757Z,90.6
2023-03-05T21:50:08.619Z,90.6
2023-03-05T21:52:56.355Z,90.8
2023-03-05T21:55:44.078Z,90.9
2023-03-05T21:58:31.809Z,90.8
2023-03-05T22:01:19.837Z,90.8
2023-03-05T22:04:07.983Z,90.9
2023-03-05T22:06:55.822Z,91
2023-03-05T22:09:43.428Z,91.2
2023-03-05T22:12:31.130Z,91.2
2023-03-05T22:15:18.798Z,91.3
2023-03-05T22:18:06.645Z,91.4
2023-03-05T22:20:54.456Z,91.5
2023-03-05T22:23:42.108Z,91.8
2023-03-05T22:26:29.847Z,91.9
2023-03-05T22:29:17.696Z,92.1
2023-03-05T22:32:05.602Z,92.2
2023-03-05T22:34:53.396Z,92.5
2023-03-05T22:37:41.098Z,92.7
2023-03-05T22:40:28.961Z,92.6
2023-03-05T22:43:16.688Z,92.5
2023-03-05T22:46:04.530Z,92.5
2023-03-05T22:48:52.259Z,92.5
2023-03-05T22:51:39.992Z,92.8
2023-03-05T22:54:27.742Z,92.6
2023-03-05T22:57:15.554Z,92.8
2023-03-05T23:00:03.254Z,92.9
2023-03-05T23:02:50.980Z,93.1
2023-03-05T23:05:38.756Z,93.2
2023-03-05T23:08:26.437Z,93.6
2023-03-05T23:11:14.276Z,93.4
2023-03-05T23:14:02.112Z,93.8
2023-03-05T23:16:49.901Z,93.7
2023-03-05T23:19:39.985Z,93.8
2023-03-05T23:22:27.764Z,94
2023-03-05T23:25:15.497Z,94.2
2023-03-05T23:28:03.272Z,94
2023-03-05T23:30:51.125Z,94.1
2023-03-05T23:33:38.613Z,94.1
2023-03-05T23:36:26.375Z,94.3
2023-03-05T23:39:14.050Z,94.7
2023-03-05T23:42:01.887Z,94.4
2023-03-05T23:44:49.794Z,94.6
2023-03-05T23:47:37.608Z,94.6
2023-03-05T23:50:25.362Z,94.5
2023-03-05T23:53:13.108Z,94.5
2023-03-05T23:56:00.699Z,94.7
2023-03-05T23:58:48.633Z,94.9
